sensor_id;sensor_type;location;lat;lon;timestamp;pressure;altitude;pressure_sealevel;temperature;humidity
5126;BME280;63008;53.112;8.896;2023-12-04T00:01:13;59294.97;;;-140.20;87.33
5126;BME280;63008;53.112;8.896;2023-12-04T00:03:14;59236.44;;;-140.20;87.49
5126;BME280;63008;53.112;8.896;2023-12-04T00:05:15;59223.88;;;-140.20;87.26
5126;BME280;63008;53.112;8.896;2023-12-04T00:07:16;59240.63;;;-140.20;87.12
5126;BME280;63008;53.112;8.896;2023-12-04T00:09:17;59228.06;;;-140.20;87.94
5126;BME280;63008;53.112;8.896;2023-12-04T00:11:18;59232.25;;;-140.20;87.43
5126;BME280;63008;53.112;8.896;2023-12-04T00:13:19;59240.63;;;-140.20;87.07
5126;BME280;63008;53.112;8.896;2023-12-04T00:15:20;59202.97;;;-140.20;87.24
5126;BME280;63008;53.112;8.896;2023-12-04T00:17:22;59209.25;;;-140.20;86.89
5126;BME280;63008;53.112;8.896;2023-12-04T00:19:23;59240.63;;;-140.20;86.98
5126;BME280;63008;53.112;8.896;2023-12-04T00:21:24;59217.63;;;-140.20;86.69
5126;BME280;63008;53.112;8.896;2023-12-04T00:23:25;59221.81;;;-140.20;85.90
5126;BME280;63008;53.112;8.896;2023-12-04T00:25:26;59253.16;;;-140.20;86.38
5126;BME280;63008;53.112;8.896;2023-12-04T00:27:27;59196.72;;;-140.20;86.18
5126;BME280;63008;53.112;8.896;2023-12-04T00:29:28;59215.53;;;-140.20;86.05
5126;BME280;63008;53.112;8.896;2023-12-04T00:31:29;59211.34;;;-140.20;86.19
5126;BME280;63008;53.112;8.896;2023-12-04T00:33:32;59228.06;;;-140.20;86.05
5126;BME280;63008;53.112;8.896;2023-12-04T00:35:33;59207.16;;;-140.20;85.96
5126;BME280;63008;53.112;8.896;2023-12-04T00:37:34;59271.97;;;-140.20;86.00
5126;BME280;63008;53.112;8.896;2023-12-04T00:39:39;59240.63;;;-140.20;86.35
5126;BME280;63008;53.112;8.896;2023-12-04T00:41:40;59246.88;;;-140.20;86.11
5126;BME280;63008;53.112;8.896;2023-12-04T00:43:41;59217.63;;;-140.20;86.39
5126;BME280;63008;53.112;8.896;2023-12-04T00:45:42;59211.34;;;-140.20;86.25
5126;BME280;63008;53.112;8.896;2023-12-04T00:47:43;59255.25;;;-140.20;86.27
5126;BME280;63008;53.112;8.896;2023-12-04T00:49:44;59234.34;;;-140.20;86.13
5126;BME280;63008;53.112;8.896;2023-12-04T00:51:45;59202.97;;;-140.20;85.96
5126;BME280;63008;53.112;8.896;2023-12-04T00:53:45;59228.06;;;-140.20;85.66
5126;BME280;63008;53.112;8.896;2023-12-04T00:55:46;59215.53;;;-140.20;86.11
5126;BME280;63008;53.112;8.896;2023-12-04T00:57:47;59225.97;;;-140.20;85.90
5126;BME280;63008;53.112;8.896;2023-12-04T00:59:49;59267.81;;;-140.20;85.46
5126;BME280;63008;53.112;8.896;2023-12-04T01:01:50;59200.88;;;-140.20;85.84
5126;BME280;63008;53.112;8.896;2023-12-04T01:03:51;59244.81;;;-140.20;85.52
5126;BME280;63008;53.112;8.896;2023-12-04T01:05:52;59194.63;;;-140.20;85.88
5126;BME280;63008;53.112;8.896;2023-12-04T01:07:53;59242.72;;;-140.20;85.92
5126;BME280;63008;53.112;8.896;2023-12-04T01:09:54;59200.88;;;-140.20;85.36
5126;BME280;63008;53.112;8.896;2023-12-04T01:11:55;59271.97;;;-140.20;84.93
5126;BME280;63008;53.112;8.896;2023-12-04T01:13:56;59238.53;;;-140.20;85.15
5126;BME280;63008;53.112;8.896;2023-12-04T01:15:57;59196.72;;;-140.20;84.89
5126;BME280;63008;53.112;8.896;2023-12-04T01:17:58;59213.44;;;-140.20;84.61
5126;BME280;63008;53.112;8.896;2023-12-04T01:20:01;59196.72;;;-140.20;85.04
5126;BME280;63008;53.112;8.896;2023-12-04T01:22:02;59246.88;;;-140.20;84.38
5126;BME280;63008;53.112;8.896;2023-12-04T01:24:03;59240.63;;;-140.20;84.46
5126;BME280;63008;53.112;8.896;2023-12-04T01:26:04;59171.63;;;-140.20;84.28
5126;BME280;63008;53.112;8.896;2023-12-04T01:28:05;59276.16;;;-140.20;84.74
5126;BME280;63008;53.112;8.896;2023-12-04T01:30:06;59225.97;;;-140.20;85.12
5126;BME280;63008;53.112;8.896;2023-12-04T01:32:11;59217.63;;;-140.20;85.08
5126;BME280;63008;53.112;8.896;2023-12-04T01:34:12;59228.06;;;-140.20;85.58
5126;BME280;63008;53.112;8.896;2023-12-04T01:36:13;59240.63;;;-140.20;84.78
5126;BME280;63008;53.112;8.896;2023-12-04T01:38:14;59198.81;;;-140.20;85.29
5126;BME280;63008;53.112;8.896;2023-12-04T01:40:15;59215.53;;;-140.20;84.98
5126;BME280;63008;53.112;8.896;2023-12-04T01:42:16;59223.88;;;-140.20;83.75
5126;BME280;63008;53.112;8.896;2023-12-04T01:44:17;59230.16;;;-140.20;84.16
5126;BME280;63008;53.112;8.896;2023-12-04T01:46:18;59215.53;;;-140.20;84.30
5126;BME280;63008;53.112;8.896;2023-12-04T01:48:19;59213.44;;;-140.20;84.01
5126;BME280;63008;53.112;8.896;2023-12-04T01:50:21;59265.72;;;-140.20;84.10
5126;BME280;63008;53.112;8.896;2023-12-04T01:52:22;59244.81;;;-140.20;84.57
5126;BME280;63008;53.112;8.896;2023-12-04T01:54:23;59232.25;;;-140.20;84.61
5126;BME280;63008;53.112;8.896;2023-12-04T01:56:25;59240.63;;;-140.20;84.72
5126;BME280;63008;53.112;8.896;2023-12-04T01:58:26;59253.16;;;-140.20;85.46
5126;BME280;63008;53.112;8.896;2023-12-04T02:00:27;59242.72;;;-140.20;85.23
5126;BME280;63008;53.112;8.896;2023-12-04T02:02:28;59209.25;;;-140.20;85.39
5126;BME280;63008;53.112;8.896;2023-12-04T02:04:30;59209.25;;;-140.20;85.21
5126;BME280;63008;53.112;8.896;2023-12-04T02:06:32;59240.63;;;-140.20;85.07
5126;BME280;63008;53.112;8.896;2023-12-04T02:08:33;59228.06;;;-140.20;85.59
5126;BME280;63008;53.112;8.896;2023-12-04T02:10:34;59213.44;;;-140.20;85.93
5126;BME280;63008;53.112;8.896;2023-12-04T02:12:35;59200.88;;;-140.20;86.16
5126;BME280;63008;53.112;8.896;2023-12-04T02:14:36;59182.06;;;-140.20;85.95
5126;BME280;63008;53.112;8.896;2023-12-04T02:16:40;59228.06;;;-140.20;85.92
5126;BME280;63008;53.112;8.896;2023-12-04T02:18:43;59234.34;;;-140.20;86.21
5126;BME280;63008;53.112;8.896;2023-12-04T02:20:44;59182.06;;;-140.20;86.46
5126;BME280;63008;53.112;8.896;2023-12-04T02:22:45;59255.25;;;-140.20;86.52
5126;BME280;63008;53.112;8.896;2023-12-04T02:24:46;59221.81;;;-140.20;86.15
5126;BME280;63008;53.112;8.896;2023-12-04T02:26:52;59232.25;;;-140.20;86.11
5126;BME280;63008;53.112;8.896;2023-12-04T02:28:58;59217.63;;;-140.20;86.84
5126;BME280;63008;53.112;8.896;2023-12-04T02:31:04;59217.63;;;-140.20;86.89
5126;BME280;63008;53.112;8.896;2023-12-04T02:33:07;59257.34;;;-140.20;86.46
5126;BME280;63008;53.112;8.896;2023-12-04T02:35:09;59238.53;;;-140.20;86.77
5126;BME280;63008;53.112;8.896;2023-12-04T02:37:11;59205.06;;;-140.20;86.88
5126;BME280;63008;53.112;8.896;2023-12-04T02:39:12;59202.97;;;-140.20;86.46
5126;BME280;63008;53.112;8.896;2023-12-04T02:41:13;59215.53;;;-140.20;87.04
5126;BME280;63008;53.112;8.896;2023-12-04T02:43:14;59190.44;;;-140.20;86.99
5126;BME280;63008;53.112;8.896;2023-12-04T02:45:15;59213.44;;;-140.20;86.71
5126;BME280;63008;53.112;8.896;2023-12-04T02:47:17;59234.34;;;-140.20;87.38
5126;BME280;63008;53.112;8.896;2023-12-04T02:49:18;59194.63;;;-140.20;87.20
5126;BME280;63008;53.112;8.896;2023-12-04T02:51:19;59234.34;;;-140.20;87.51
5126;BME280;63008;53.112;8.896;2023-12-04T02:53:20;59240.63;;;-140.20;87.43
5126;BME280;63008;53.112;8.896;2023-12-04T02:55:21;59202.97;;;-140.20;87.15
5126;BME280;63008;53.112;8.896;2023-12-04T02:57:22;59217.63;;;-140.20;87.71
5126;BME280;63008;53.112;8.896;2023-12-04T02:59:23;59219.72;;;-140.20;87.43
5126;BME280;63008;53.112;8.896;2023-12-04T03:01:24;59240.63;;;-140.20;87.54
5126;BME280;63008;53.112;8.896;2023-12-04T03:03:25;59217.63;;;-140.20;87.88
5126;BME280;63008;53.112;8.896;2023-12-04T03:05:26;59238.53;;;-140.20;87.75
5126;BME280;63008;53.112;8.896;2023-12-04T03:07:27;59248.97;;;-140.20;87.68
5126;BME280;63008;53.112;8.896;2023-12-04T03:09:28;59230.16;;;-140.20;87.64
5126;BME280;63008;53.112;8.896;2023-12-04T03:11:29;59240.63;;;-140.20;87.86
5126;BME280;63008;53.112;8.896;2023-12-04T03:13:30;59257.34;;;-140.20;87.75
5126;BME280;63008;53.112;8.896;2023-12-04T03:15:31;59240.63;;;-140.20;87.94
5126;BME280;63008;53.112;8.896;2023-12-04T03:17:32;59192.53;;;-140.20;88.17
5126;BME280;63008;53.112;8.896;2023-12-04T03:19:33;59213.44;;;-140.20;87.72
5126;BME280;63008;53.112;8.896;2023-12-04T03:21:34;59232.25;;;-140.20;88.24
5126;BME280;63008;53.112;8.896;2023-12-04T03:23:35;59246.88;;;-140.20;88.32
5126;BME280;63008;53.112;8.896;2023-12-04T03:25:36;59217.63;;;-140.20;88.56
5126;BME280;63008;53.112;8.896;2023-12-04T03:27:37;59228.06;;;-140.20;89.18
5126;BME280;63008;53.112;8.896;2023-12-04T03:29:38;59257.34;;;-140.20;89.30
5126;BME280;63008;53.112;8.896;2023-12-04T03:31:39;59200.88;;;-140.20;90.21
5126;BME280;63008;53.112;8.896;2023-12-04T03:33:40;59244.81;;;-140.20;90.17
5126;BME280;63008;53.112;8.896;2023-12-04T03:35:41;59192.53;;;-140.20;90.14
5126;BME280;63008;53.112;8.896;2023-12-04T03:37:42;59198.81;;;-140.20;90.59
5126;BME280;63008;53.112;8.896;2023-12-04T03:39:43;59228.06;;;-140.20;91.09
5126;BME280;63008;53.112;8.896;2023-12-04T03:41:44;59240.63;;;-140.20;90.95
5126;BME280;63008;53.112;8.896;2023-12-04T03:43:45;59209.25;;;-140.20;90.78
5126;BME280;63008;53.112;8.896;2023-12-04T03:45:46;59242.72;;;-140.20;91.25
5126;BME280;63008;53.112;8.896;2023-12-04T03:47:47;59230.16;;;-140.20;91.33
5126;BME280;63008;53.112;8.896;2023-12-04T03:49:48;59223.88;;;-140.20;91.31
5126;BME280;63008;53.112;8.896;2023-12-04T03:51:49;59230.16;;;-140.20;91.33
5126;BME280;63008;53.112;8.896;2023-12-04T03:53:50;59267.81;;;-140.20;91.30
5126;BME280;63008;53.112;8.896;2023-12-04T03:55:51;59261.53;;;-140.20;91.45
5126;BME280;63008;53.112;8.896;2023-12-04T03:57:53;59236.44;;;-140.20;91.71
5126;BME280;63008;53.112;8.896;2023-12-04T03:59:54;59200.88;;;-140.20;91.54
5126;BME280;63008;53.112;8.896;2023-12-04T04:01:55;59259.44;;;-140.20;91.83
5126;BME280;63008;53.112;8.896;2023-12-04T04:03:56;59223.88;;;-140.20;91.86
5126;BME280;63008;53.112;8.896;2023-12-04T04:05:57;59228.06;;;-140.20;91.94
5126;BME280;63008;53.112;8.896;2023-12-04T04:07:58;59248.97;;;-140.20;91.74
5126;BME280;63008;53.112;8.896;2023-12-04T04:09:59;59217.63;;;-140.20;91.98
5126;BME280;63008;53.112;8.896;2023-12-04T04:12:01;59230.16;;;-140.20;92.16
5126;BME280;63008;53.112;8.896;2023-12-04T04:14:02;59217.63;;;-140.20;92.11
5126;BME280;63008;53.112;8.896;2023-12-04T04:16:03;59228.06;;;-140.20;92.18
5126;BME280;63008;53.112;8.896;2023-12-04T04:18:04;59221.81;;;-140.20;92.44
5126;BME280;63008;53.112;8.896;2023-12-04T04:20:06;59255.25;;;-140.20;92.70
5126;BME280;63008;53.112;8.896;2023-12-04T04:22:07;59209.25;;;-140.20;92.54
5126;BME280;63008;53.112;8.896;2023-12-04T04:24:08;59253.16;;;-140.20;92.77
5126;BME280;63008;53.112;8.896;2023-12-04T04:26:09;59265.72;;;-140.20;92.99
5126;BME280;63008;53.112;8.896;2023-12-04T04:28:10;59225.97;;;-140.20;93.27
5126;BME280;63008;53.112;8.896;2023-12-04T04:30:11;59244.81;;;-140.20;93.50
5126;BME280;63008;53.112;8.896;2023-12-04T04:32:14;59238.53;;;-140.20;93.61
5126;BME280;63008;53.112;8.896;2023-12-04T04:34:15;59255.25;;;-140.20;93.89
5126;BME280;63008;53.112;8.896;2023-12-04T04:36:16;59198.81;;;-140.20;93.85
5126;BME280;63008;53.112;8.896;2023-12-04T04:38:17;59188.34;;;-140.20;93.71
5126;BME280;63008;53.112;8.896;2023-12-04T04:40:18;59244.81;;;-140.20;93.57
5126;BME280;63008;53.112;8.896;2023-12-04T04:42:19;59228.06;;;-140.20;93.61
5126;BME280;63008;53.112;8.896;2023-12-04T04:44:20;59228.06;;;-140.20;93.96
5126;BME280;63008;53.112;8.896;2023-12-04T04:46:21;59192.53;;;-140.20;94.09
5126;BME280;63008;53.112;8.896;2023-12-04T04:48:22;59236.44;;;-140.20;94.16
5126;BME280;63008;53.112;8.896;2023-12-04T04:50:23;59221.81;;;-140.20;94.21
5126;BME280;63008;53.112;8.896;2023-12-04T04:52:24;59232.25;;;-140.20;94.43
5126;BME280;63008;53.112;8.896;2023-12-04T04:54:25;59248.97;;;-140.20;94.61
5126;BME280;63008;53.112;8.896;2023-12-04T04:56:26;59234.34;;;-140.20;94.70
5126;BME280;63008;53.112;8.896;2023-12-04T04:58:27;59234.34;;;-140.20;94.69
5126;BME280;63008;53.112;8.896;2023-12-04T05:00:28;59234.34;;;-140.20;94.63
5126;BME280;63008;53.112;8.896;2023-12-04T05:02:28;59217.63;;;-140.20;94.93
5126;BME280;63008;53.112;8.896;2023-12-04T05:04:30;59240.63;;;-140.20;94.72
5126;BME280;63008;53.112;8.896;2023-12-04T05:06:31;59253.16;;;-140.20;94.85
5126;BME280;63008;53.112;8.896;2023-12-04T05:08:32;59225.97;;;-140.20;94.81
5126;BME280;63008;53.112;8.896;2023-12-04T05:10:33;59244.81;;;-140.20;94.65
5126;BME280;63008;53.112;8.896;2023-12-04T05:12:34;59251.06;;;-140.20;94.65
5126;BME280;63008;53.112;8.896;2023-12-04T05:14:35;59234.34;;;-140.20;94.47
5126;BME280;63008;53.112;8.896;2023-12-04T05:16:36;59221.81;;;-140.20;94.65
5126;BME280;63008;53.112;8.896;2023-12-04T05:18:38;59246.88;;;-140.20;94.68
5126;BME280;63008;53.112;8.896;2023-12-04T05:20:39;59238.53;;;-140.20;94.37
5126;BME280;63008;53.112;8.896;2023-12-04T05:22:40;59221.81;;;-140.20;94.54
5126;BME280;63008;53.112;8.896;2023-12-04T05:24:41;59232.25;;;-140.20;94.63
5126;BME280;63008;53.112;8.896;2023-12-04T05:26:43;59196.72;;;-140.20;94.69
5126;BME280;63008;53.112;8.896;2023-12-04T05:28:44;59230.16;;;-140.20;94.71
5126;BME280;63008;53.112;8.896;2023-12-04T05:30:45;59223.88;;;-140.20;94.48
5126;BME280;63008;53.112;8.896;2023-12-04T05:32:46;59255.25;;;-140.20;94.66
5126;BME280;63008;53.112;8.896;2023-12-04T05:34:47;59211.34;;;-140.20;94.52
5126;BME280;63008;53.112;8.896;2023-12-04T05:36:48;59207.16;;;-140.20;94.58
5126;BME280;63008;53.112;8.896;2023-12-04T05:38:49;59221.81;;;-140.20;94.54
5126;BME280;63008;53.112;8.896;2023-12-04T05:40:50;59240.63;;;-140.20;94.49
5126;BME280;63008;53.112;8.896;2023-12-04T05:42:50;59261.53;;;-140.20;94.25
5126;BME280;63008;53.112;8.896;2023-12-04T05:44:52;59238.53;;;-140.20;94.25
5126;BME280;63008;53.112;8.896;2023-12-04T05:46:56;59240.63;;;-140.20;94.17
5126;BME280;63008;53.112;8.896;2023-12-04T05:48:57;59194.63;;;-140.20;94.31
5126;BME280;63008;53.112;8.896;2023-12-04T05:50:58;59202.97;;;-140.20;94.20
5126;BME280;63008;53.112;8.896;2023-12-04T05:52:58;59244.81;;;-140.20;94.00
5126;BME280;63008;53.112;8.896;2023-12-04T05:55:00;59230.16;;;-140.20;94.16
5126;BME280;63008;53.112;8.896;2023-12-04T05:57:01;59196.72;;;-140.20;94.25
5126;BME280;63008;53.112;8.896;2023-12-04T05:59:01;59269.88;;;-140.20;94.08
5126;BME280;63008;53.112;8.896;2023-12-04T06:01:04;59238.53;;;-140.20;94.25
5126;BME280;63008;53.112;8.896;2023-12-04T06:03:05;59209.25;;;-140.20;94.17
5126;BME280;63008;53.112;8.896;2023-12-04T06:05:06;59209.25;;;-140.20;94.46
5126;BME280;63008;53.112;8.896;2023-12-04T06:07:09;59211.34;;;-140.20;94.38
5126;BME280;63008;53.112;8.896;2023-12-04T06:09:10;59251.06;;;-140.20;94.34
5126;BME280;63008;53.112;8.896;2023-12-04T06:11:11;59238.53;;;-140.20;94.33
5126;BME280;63008;53.112;8.896;2023-12-04T06:13:12;59244.81;;;-140.20;94.29
5126;BME280;63008;53.112;8.896;2023-12-04T06:15:13;59244.81;;;-140.20;94.50
5126;BME280;63008;53.112;8.896;2023-12-04T06:17:14;59228.06;;;-140.20;94.40
5126;BME280;63008;53.112;8.896;2023-12-04T06:19:15;59219.72;;;-140.20;94.39
5126;BME280;63008;53.112;8.896;2023-12-04T06:21:16;59238.53;;;-140.20;94.55
5126;BME280;63008;53.112;8.896;2023-12-04T06:23:17;59207.16;;;-140.20;94.61
5126;BME280;63008;53.112;8.896;2023-12-04T06:25:19;59225.97;;;-140.20;94.81
5126;BME280;63008;53.112;8.896;2023-12-04T06:27:21;59240.63;;;-140.20;94.95
5126;BME280;63008;53.112;8.896;2023-12-04T06:29:23;59263.63;;;-140.20;94.95
5126;BME280;63008;53.112;8.896;2023-12-04T06:31:25;59278.25;;;-140.20;94.87
5126;BME280;63008;53.112;8.896;2023-12-04T06:33:26;59215.53;;;-140.20;94.59
5126;BME280;63008;53.112;8.896;2023-12-04T06:35:28;59242.72;;;-140.20;94.43
5126;BME280;63008;53.112;8.896;2023-12-04T06:37:29;59228.06;;;-140.20;94.37
5126;BME280;63008;53.112;8.896;2023-12-04T06:39:32;59278.25;;;-140.20;94.54
5126;BME280;63008;53.112;8.896;2023-12-04T06:41:33;59213.44;;;-140.20;94.46
5126;BME280;63008;53.112;8.896;2023-12-04T06:43:34;59211.34;;;-140.20;94.62
5126;BME280;63008;53.112;8.896;2023-12-04T06:45:36;59202.97;;;-140.20;94.97
5126;BME280;63008;53.112;8.896;2023-12-04T06:47:40;59198.81;;;-140.20;95.20
5126;BME280;63008;53.112;8.896;2023-12-04T06:49:41;59194.63;;;-140.20;95.03
5126;BME280;63008;53.112;8.896;2023-12-04T06:51:42;59219.72;;;-140.20;94.84
5126;BME280;63008;53.112;8.896;2023-12-04T06:53:43;59271.97;;;-140.20;94.71
5126;BME280;63008;53.112;8.896;2023-12-04T06:55:44;59223.88;;;-140.20;94.74
5126;BME280;63008;53.112;8.896;2023-12-04T06:57:45;59207.16;;;-140.20;94.69
5126;BME280;63008;53.112;8.896;2023-12-04T06:59:46;59228.06;;;-140.20;94.44
5126;BME280;63008;53.112;8.896;2023-12-04T07:01:47;59248.97;;;-140.20;94.51
5126;BME280;63008;53.112;8.896;2023-12-04T07:03:48;59246.88;;;-140.20;94.25
5126;BME280;63008;53.112;8.896;2023-12-04T07:05:49;59246.88;;;-140.20;93.96
5126;BME280;63008;53.112;8.896;2023-12-04T07:07:50;59253.16;;;-140.20;93.69
5126;BME280;63008;53.112;8.896;2023-12-04T07:09:51;59217.63;;;-140.20;93.40
5126;BME280;63008;53.112;8.896;2023-12-04T07:11:52;59217.63;;;-140.20;93.32
5126;BME280;63008;53.112;8.896;2023-12-04T07:13:53;59246.88;;;-140.20;93.13
5126;BME280;63008;53.112;8.896;2023-12-04T07:15:55;59211.34;;;-140.20;92.99
5126;BME280;63008;53.112;8.896;2023-12-04T07:17:56;59213.44;;;-140.20;93.66
5126;BME280;63008;53.112;8.896;2023-12-04T07:19:57;59223.88;;;-140.20;93.53
5126;BME280;63008;53.112;8.896;2023-12-04T07:21:58;59207.16;;;-140.20;93.47
5126;BME280;63008;53.112;8.896;2023-12-04T07:23:59;59196.72;;;-140.20;93.70
5126;BME280;63008;53.112;8.896;2023-12-04T07:26:00;59221.81;;;-140.20;93.21
5126;BME280;63008;53.112;8.896;2023-12-04T07:28:01;59228.06;;;-140.20;92.97
5126;BME280;63008;53.112;8.896;2023-12-04T07:30:02;59232.25;;;-140.20;92.35
5126;BME280;63008;53.112;8.896;2023-12-04T07:32:04;59215.53;;;-140.20;91.96
5126;BME280;63008;53.112;8.896;2023-12-04T07:34:05;59207.16;;;-140.20;91.48
5126;BME280;63008;53.112;8.896;2023-12-04T07:36:06;59217.63;;;-140.20;91.15
5126;BME280;63008;53.112;8.896;2023-12-04T07:38:07;59246.88;;;-140.20;91.11
5126;BME280;63008;53.112;8.896;2023-12-04T07:40:09;59223.88;;;-140.20;91.20
5126;BME280;63008;53.112;8.896;2023-12-04T07:42:11;59255.25;;;-140.20;90.80
5126;BME280;63008;53.112;8.896;2023-12-04T07:44:12;59207.16;;;-140.20;90.06
5126;BME280;63008;53.112;8.896;2023-12-04T07:46:13;59221.81;;;-140.20;89.74
5126;BME280;63008;53.112;8.896;2023-12-04T07:48:14;59278.25;;;-140.20;89.50
5126;BME280;63008;53.112;8.896;2023-12-04T07:50:16;59211.34;;;-140.20;89.44
5126;BME280;63008;53.112;8.896;2023-12-04T07:52:17;59223.88;;;-140.20;89.35
5126;BME280;63008;53.112;8.896;2023-12-04T07:54:19;59228.06;;;-140.20;88.84
5126;BME280;63008;53.112;8.896;2023-12-04T07:56:20;59228.06;;;-140.20;88.37
5126;BME280;63008;53.112;8.896;2023-12-04T07:58:21;59217.63;;;-140.20;88.02
5126;BME280;63008;53.112;8.896;2023-12-04T08:00:22;59240.63;;;-140.20;87.48
5126;BME280;63008;53.112;8.896;2023-12-04T08:02:27;59236.44;;;-140.20;86.95
5126;BME280;63008;53.112;8.896;2023-12-04T08:04:28;59228.06;;;-140.20;86.23
5126;BME280;63008;53.112;8.896;2023-12-04T08:06:29;59223.88;;;-140.20;86.38
5126;BME280;63008;53.112;8.896;2023-12-04T08:08:30;59236.44;;;-140.20;86.15
5126;BME280;63008;53.112;8.896;2023-12-04T08:10:32;59236.44;;;-140.20;86.16
5126;BME280;63008;53.112;8.896;2023-12-04T08:12:33;59211.34;;;-140.20;85.81
5126;BME280;63008;53.112;8.896;2023-12-04T08:14:34;59246.88;;;-140.20;85.08
5126;BME280;63008;53.112;8.896;2023-12-04T08:16:35;59209.25;;;-140.20;85.50
5126;BME280;63008;53.112;8.896;2023-12-04T08:18:36;59223.88;;;-140.20;85.94
5126;BME280;63008;53.112;8.896;2023-12-04T08:20:37;59215.53;;;-140.20;85.24
5126;BME280;63008;53.112;8.896;2023-12-04T08:22:41;59255.25;;;-140.20;85.55
5126;BME280;63008;53.112;8.896;2023-12-04T08:24:42;59202.97;;;-140.20;84.79
5126;BME280;63008;53.112;8.896;2023-12-04T08:26:46;59184.16;;;-140.20;84.53
5126;BME280;63008;53.112;8.896;2023-12-04T08:28:47;59228.06;;;-140.20;83.51
5126;BME280;63008;53.112;8.896;2023-12-04T08:30:48;59244.81;;;-140.20;83.55
5126;BME280;63008;53.112;8.896;2023-12-04T08:32:49;59205.06;;;-140.20;83.51
5126;BME280;63008;53.112;8.896;2023-12-04T08:34:50;59211.34;;;-140.20;83.87
5126;BME280;63008;53.112;8.896;2023-12-04T08:36:51;59215.53;;;-140.20;83.63
5126;BME280;63008;53.112;8.896;2023-12-04T08:38:52;59215.53;;;-140.20;83.23
5126;BME280;63008;53.112;8.896;2023-12-04T08:40:53;59186.25;;;-140.20;83.06
5126;BME280;63008;53.112;8.896;2023-12-04T08:42:54;59232.25;;;-140.20;82.49
5126;BME280;63008;53.112;8.896;2023-12-04T08:44:55;59242.72;;;-140.20;82.98
5126;BME280;63008;53.112;8.896;2023-12-04T08:46:56;59232.25;;;-140.20;82.34
5126;BME280;63008;53.112;8.896;2023-12-04T08:48:58;59198.81;;;-140.20;82.71
5126;BME280;63008;53.112;8.896;2023-12-04T08:50:59;59261.53;;;-140.20;92.01
5126;BME280;63008;53.112;8.896;2023-12-04T08:53:00;59223.88;;;-140.20;85.14
5126;BME280;63008;53.112;8.896;2023-12-04T08:55:02;59213.44;;;-140.20;81.43
5126;BME280;63008;53.112;8.896;2023-12-04T08:57:03;59219.72;;;-140.20;80.86
5126;BME280;63008;53.112;8.896;2023-12-04T08:59:04;59265.72;;;-140.20;81.25
5126;BME280;63008;53.112;8.896;2023-12-04T09:01:05;59198.81;;;-140.20;80.35
5126;BME280;63008;53.112;8.896;2023-12-04T09:03:06;59207.16;;;-140.20;80.51
5126;BME280;63008;53.112;8.896;2023-12-04T09:05:07;59209.25;;;-140.20;80.41
5126;BME280;63008;53.112;8.896;2023-12-04T09:07:08;59238.53;;;-140.20;80.81
5126;BME280;63008;53.112;8.896;2023-12-04T09:09:09;59251.06;;;-140.20;80.79
5126;BME280;63008;53.112;8.896;2023-12-04T09:11:12;59207.16;;;-140.20;80.74
5126;BME280;63008;53.112;8.896;2023-12-04T09:13:14;59238.53;;;-140.20;80.33
5126;BME280;63008;53.112;8.896;2023-12-04T09:15:15;59207.16;;;-140.20;80.49
5126;BME280;63008;53.112;8.896;2023-12-04T09:17:16;59156.97;;;-140.20;79.98
5126;BME280;63008;53.112;8.896;2023-12-04T09:19:17;59205.06;;;-140.20;79.82
5126;BME280;63008;53.112;8.896;2023-12-04T09:21:18;59225.97;;;-140.20;79.27
5126;BME280;63008;53.112;8.896;2023-12-04T09:23:19;59238.53;;;-140.20;79.44
5126;BME280;63008;53.112;8.896;2023-12-04T09:25:20;59215.53;;;-140.20;79.80
5126;BME280;63008;53.112;8.896;2023-12-04T09:27:22;59179.97;;;-140.20;80.18
5126;BME280;63008;53.112;8.896;2023-12-04T09:29:23;59236.44;;;-140.20;78.74
5126;BME280;63008;53.112;8.896;2023-12-04T09:31:24;59228.06;;;-140.20;79.73
5126;BME280;63008;53.112;8.896;2023-12-04T09:33:25;59221.81;;;-140.20;79.33
5126;BME280;63008;53.112;8.896;2023-12-04T09:35:27;59223.88;;;-140.20;80.06
5126;BME280;63008;53.112;8.896;2023-12-04T09:37:28;59207.16;;;-140.20;79.32
5126;BME280;63008;53.112;8.896;2023-12-04T09:39:29;59230.16;;;-140.20;79.40
5126;BME280;63008;53.112;8.896;2023-12-04T09:41:31;59200.88;;;-140.20;79.51
5126;BME280;63008;53.112;8.896;2023-12-04T09:43:32;59211.34;;;-140.20;79.63
5126;BME280;63008;53.112;8.896;2023-12-04T09:45:33;59207.16;;;-140.20;79.01
5126;BME280;63008;53.112;8.896;2023-12-04T09:47:35;59215.53;;;-140.20;79.09
5126;BME280;63008;53.112;8.896;2023-12-04T09:49:37;59200.88;;;-140.20;78.61
5126;BME280;63008;53.112;8.896;2023-12-04T09:51:38;59217.63;;;-140.20;78.42
5126;BME280;63008;53.112;8.896;2023-12-04T09:53:39;59228.06;;;-140.20;78.36
5126;BME280;63008;53.112;8.896;2023-12-04T09:55:41;59190.44;;;-140.20;78.67
5126;BME280;63008;53.112;8.896;2023-12-04T09:57:44;59244.81;;;-140.20;78.50
5126;BME280;63008;53.112;8.896;2023-12-04T09:59:47;59219.72;;;-140.20;78.88
5126;BME280;63008;53.112;8.896;2023-12-04T10:01:49;59207.16;;;-140.20;77.99
5126;BME280;63008;53.112;8.896;2023-12-04T10:03:50;59205.06;;;-140.20;78.57
5126;BME280;63008;53.112;8.896;2023-12-04T10:05:53;59228.06;;;-140.20;78.23
5126;BME280;63008;53.112;8.896;2023-12-04T10:07:55;59223.88;;;-140.20;78.08
5126;BME280;63008;53.112;8.896;2023-12-04T10:09:55;59202.97;;;-140.20;77.20
5126;BME280;63008;53.112;8.896;2023-12-04T10:11:56;59221.81;;;-140.20;77.51
5126;BME280;63008;53.112;8.896;2023-12-04T10:13:58;59225.97;;;-140.20;76.83
5126;BME280;63008;53.112;8.896;2023-12-04T10:15:59;59223.88;;;-140.20;78.33
5126;BME280;63008;53.112;8.896;2023-12-04T10:18:00;59198.81;;;-140.20;76.92
5126;BME280;63008;53.112;8.896;2023-12-04T10:20:09;59198.81;;;-140.20;77.00
5126;BME280;63008;53.112;8.896;2023-12-04T10:22:13;59207.16;;;-140.20;76.62
5126;BME280;63008;53.112;8.896;2023-12-04T10:24:33;59165.34;;;-140.20;76.59
5126;BME280;63008;53.112;8.896;2023-12-04T10:26:36;59196.72;;;-140.20;77.52
5126;BME280;63008;53.112;8.896;2023-12-04T10:28:37;59198.81;;;-140.20;76.71
5126;BME280;63008;53.112;8.896;2023-12-04T10:30:38;59194.63;;;-140.20;77.05
5126;BME280;63008;53.112;8.896;2023-12-04T10:32:39;59182.06;;;-140.20;76.54
5126;BME280;63008;53.112;8.896;2023-12-04T10:34:41;59184.16;;;-140.20;77.47